Quinlan, TX

08:47 AM CST on 22. Desember 2014 (GMT -0600)
Deer Park | Change Station
CLOSE
Current Station
Personal Weather Stations
Location: Quinlan, TX
Elevation: 469 ft
Nearby Weather Stations

Elev 469 ft 32.88 °N, 96.10 °W | Updated 3 seconds ago

Alskýjað
Alskýjað
59.0 °F
Feels Like 59.0 °F
N
15.0
Vindur Breytileg vindátt Vindur from SV
Gusts 15.0 mph

Í dag
High -- | Low -- °F
--% Chance of Precip.
Yesterday
High -- | Low -- °F
Precip. -- in
7:23 AM 5:22 PM
New, 0% visible
Loftþrýstingur 29.62 in
Skyggni 10.0 miles
Clouds Skýjað með köflum 1900 ft
Alskýjað 2400 ft
Daggarmark 51 °F
Raki 76%
Rainfall 0.00 in
Snow Depth Not available.
UV 0 out of 12
Pollen 11.20 out of 12
Air Quality Not available.
Flu Activity Not available.
METAR KGVT 221435Z AUTO 20013G19KT 10SM SCT019 OVC024 14/11 A2962 RMK AO2

More Conditions Fewer Conditions

Loftþrýstingur 29.62 in
Skyggni 10.0 miles
Clouds Skýjað með köflum 1900 ft
Alskýjað 2400 ft
Daggarmark 51 °F
Raki 76%
Rainfall 0.00 in
Snow Depth Not available.
UV 0 out of 12
Pollen 11.20 out of 12
Air Quality Not available.
Flu Activity Not available.
METAR KGVT 221435Z AUTO 20013G19KT 10SM SCT019 OVC024 14/11 A2962 RMK AO2

More Conditions Fewer Conditions

10-Day Weather Forecast

Almanac

Astronomy

Dec. 22, 2014 Rise Set
Actual Time
Civil Twilight
Nautical Twilight
Astronomical Twilight
Moon
Length Of Visible Light
Length of Day
Tomorrow will be .
, % of the Moon is Illuminated

Today's Extremes

State Highs State Lows

Community

WunderPhotos

Upload Photos

1,779,608 photos uploaded!

WunderBlogs® & News

Nearby

Air Quality

  Air Quality AQ Index Pollutant
Not available.

Snow Depth

Station Depth Elevation

Earthquake Activity

Staður Distance Mag. Time & Date
Minimum magnitude displayed is 2.5.

Coastal Water Temperatures

Staður Hitastig

Nearby Weather Stations